This is the latest recevied weather packets stored in our database for station/object DL2GPS-3. If no packets are shown the sender has not sent any weather packets the latest 10 day(s).
| Time | Temp. | Humidity | Pressure | Rain* | Wind** | Luminosity | Snow |
|---|---|---|---|---|---|---|---|
| 1788629233 | 17.22° C | 75% | 1028.1 hPa | - | - | - | - |
| 1788628628 | 17.78° C | 75% | 1027.9 hPa | - | - | - | - |
| 1788628024 | 18.33° C | 73% | 1027.9 hPa | - | - | - | - |
| 1788627418 | 18.89° C | 72% | 1027.9 hPa | - | - | - | - |
| 1788626814 | 19.44° C | 69% | 1027.9 hPa | - | - | - | - |
| 1788626209 | 20° C | 66% | 1027.9 hPa | - | - | - | - |
| 1788625604 | 20.56° C | 64% | 1027.8 hPa | - | - | - | - |
| 1788624998 | 21.11° C | 63% | 1027.7 hPa | - | - | - | - |
| 1788624393 | 20.56° C | 62% | 1027.7 hPa | - | - | - | - |
| 1788623791 | 20.56° C | 63% | 1027.7 hPa | - | - | - | - |
| 1788623190 | 21.11° C | 60% | 1027.6 hPa | - | - | - | - |
| 1788622589 | 21.67° C | 57% | 1027.6 hPa | - | - | - | - |
| 1788621989 | 21.67° C | 59% | 1027.6 hPa | - | - | - | - |
| 1788621388 | 21.67° C | 62% | 1027.6 hPa | - | - | - | - |
| 1788620787 | 22.22° C | 60% | 1027.5 hPa | - | - | - | - |
| 1788620187 | 22.22° C | 63% | 1027.4 hPa | - | - | - | - |
| 1788619586 | 22.78° C | 62% | 1027.6 hPa | - | - | - | - |
| 1788618995 | 22.22° C | 64% | 1027.5 hPa | - | - | - | - |
| 1788618384 | 22.22° C | 66% | 1027.5 hPa | - | - | - | - |
| 1788617783 | 22.22° C | 69% | 1027.6 hPa | - | - | - | - |
| 1788617182 | 22.22° C | 71% | 1027.6 hPa | - | - | - | - |
| 1788616581 | 21.11° C | 76% | 1027.6 hPa | - | - | - | - |
| 1788615980 | 21.11° C | 73% | 1027.6 hPa | - | - | - | - |
| 1788615379 | 21.11° C | 72% | 1027.5 hPa | - | - | - | - |
| 1788614779 | 22.78° C | 66% | 1027.4 hPa | - | - | - | - |
* Rain since midnight (hover to see other rain measurements)
** Current wind speed in m/s (hover to see current wind gust speed)